createdAt,value
2018-08-06T00:00:26.484Z,2.20
2018-08-06T00:02:55.302Z,2.52
2018-08-06T00:05:24.165Z,2.05
2018-08-06T00:07:53.088Z,2.33
2018-08-06T00:10:25.140Z,2.20
2018-08-06T00:12:54.037Z,2.22
2018-08-06T00:15:22.844Z,2.20
2018-08-06T00:17:51.764Z,1.95
2018-08-06T00:20:20.632Z,2.15
2018-08-06T00:22:49.454Z,2.05
2018-08-06T00:25:18.590Z,2.17
2018-08-06T00:27:47.641Z,2.08
2018-08-06T00:30:19.119Z,2.30
2018-08-06T00:32:48.851Z,2.22
2018-08-06T00:35:17.981Z,1.98
2018-08-06T00:37:46.834Z,1.70
2018-08-06T00:40:20.531Z,1.82
2018-08-06T00:42:49.675Z,2.45
2018-08-06T00:45:20.222Z,1.95
2018-08-06T00:47:49.528Z,2.27
2018-08-06T00:50:18.346Z,1.90
2018-08-06T00:52:47.282Z,1.70
2018-08-06T00:55:18.983Z,2.17
2018-08-06T00:57:48.834Z,1.80
2018-08-06T01:00:20.664Z,2.13
2018-08-06T01:02:49.536Z,1.67
2018-08-06T01:05:18.655Z,2.10
2018-08-06T01:07:47.512Z,2.20
2018-08-06T01:10:19.043Z,1.83
2018-08-06T01:12:47.954Z,2.00
2018-08-06T01:15:17.891Z,2.00
2018-08-06T01:17:46.793Z,2.43
2018-08-06T01:20:15.925Z,2.40
2018-08-06T01:22:45.519Z,2.03
2018-08-06T01:25:14.977Z,1.93
2018-08-06T01:27:43.804Z,2.10
2018-08-06T01:30:14.204Z,1.80
2018-08-06T01:32:43.357Z,2.50
2018-08-06T01:35:12.570Z,2.80
2018-08-06T01:37:41.465Z,2.90
2018-08-06T01:40:12.804Z,2.90
2018-08-06T01:42:42.104Z,2.70
2018-08-06T01:45:13.072Z,2.80
2018-08-06T01:47:41.882Z,2.30
2018-08-06T01:50:10.739Z,1.97
2018-08-06T01:52:39.850Z,2.33
2018-08-06T01:55:08.663Z,2.60
2018-08-06T01:57:37.643Z,2.27
2018-08-06T02:00:09.849Z,2.43
2018-08-06T02:02:38.707Z,2.10
2018-08-06T02:05:08.221Z,2.30
2018-08-06T02:07:37.317Z,2.57
2018-08-06T02:10:08.322Z,2.13
2018-08-06T02:12:37.141Z,2.33
2018-08-06T02:15:07.100Z,2.30
2018-08-06T02:17:36.196Z,2.17
2018-08-06T02:20:06.808Z,2.60
2018-08-06T02:22:35.808Z,2.67
2018-08-06T02:25:06.010Z,2.30
2018-08-06T02:27:34.843Z,2.03
2018-08-06T02:30:03.724Z,2.33
2018-08-06T02:32:32.810Z,2.27
2018-08-06T02:35:01.987Z,2.37
2018-08-06T02:37:30.810Z,2.50
2018-08-06T02:39:59.710Z,2.50
2018-08-06T02:42:28.541Z,2.37
2018-08-06T02:44:57.373Z,2.50
2018-08-06T02:47:26.227Z,2.67
2018-08-06T02:49:55.051Z,2.40
2018-08-06T02:52:23.893Z,2.77
2018-08-06T02:54:52.736Z,2.17
2018-08-06T02:57:21.585Z,2.50
2018-08-06T02:59:50.476Z,2.37
2018-08-06T03:02:19.364Z,2.50
2018-08-06T03:04:48.187Z,2.33
2018-08-06T03:07:16.603Z,2.47
2018-08-06T03:09:45.493Z,2.70
2018-08-06T03:12:14.307Z,2.60
2018-08-06T03:14:43.131Z,2.67
2018-08-06T03:17:12.032Z,2.60
2018-08-06T03:19:40.837Z,2.60
2018-08-06T03:22:09.656Z,3.23
2018-08-06T03:24:38.526Z,3.07
2018-08-06T03:27:06.955Z,3.23
2018-08-06T03:29:35.773Z,3.60
2018-08-06T03:32:04.650Z,3.37
2018-08-06T03:34:33.480Z,3.00
2018-08-06T03:37:02.321Z,2.67
2018-08-06T03:39:31.175Z,2.80
2018-08-06T03:41:59.989Z,2.97
2018-08-06T03:44:28.821Z,2.90
2018-08-06T03:46:57.745Z,2.93
2018-08-06T03:49:26.560Z,2.70
2018-08-06T03:51:55.383Z,2.80
2018-08-06T03:54:24.258Z,2.90
2018-08-06T03:56:53.095Z,3.27
2018-08-06T03:59:21.920Z,3.00
2018-08-06T04:01:50.849Z,2.67
2018-08-06T04:04:19.720Z,3.20
2018-08-06T04:06:48.531Z,2.53
2018-08-06T04:09:17.400Z,2.70
2018-08-06T04:11:46.237Z,2.87
2018-08-06T04:14:15.042Z,2.70
2018-08-06T04:16:44.713Z,2.90
2018-08-06T04:19:14.541Z,2.97
2018-08-06T04:21:43.378Z,2.40
2018-08-06T04:24:12.212Z,2.70
2018-08-06T04:26:41.378Z,2.27
2018-08-06T04:29:10.405Z,2.70
2018-08-06T04:31:39.223Z,2.67
2018-08-06T04:34:08.074Z,2.50
2018-08-06T04:36:37.020Z,2.50
2018-08-06T04:39:06.594Z,3.10
2018-08-06T04:41:35.608Z,2.83
2018-08-06T04:44:04.528Z,2.50
2018-08-06T04:46:33.391Z,3.33
2018-08-06T04:49:02.232Z,3.65
2018-08-06T04:51:31.144Z,2.90
2018-08-06T04:54:00.009Z,2.58
2018-08-06T04:56:28.451Z,2.70
2018-08-06T04:58:57.385Z,2.57
2018-08-06T05:01:26.212Z,2.90
2018-08-06T05:03:55.655Z,2.50
2018-08-06T05:06:24.527Z,2.02
2018-08-06T05:08:53.483Z,2.42
2018-08-06T05:11:22.293Z,2.67
2018-08-06T05:13:51.142Z,2.58
2018-08-06T05:16:20.047Z,2.72
2018-08-06T05:18:48.872Z,3.12
2018-08-06T05:21:17.896Z,2.90
2018-08-06T05:23:56.588Z,2.67
2018-08-06T05:26:26.827Z,2.50
2018-08-06T05:28:55.698Z,2.40
2018-08-06T05:31:25.595Z,2.33
2018-08-06T05:33:55.049Z,2.42
2018-08-06T05:36:24.406Z,2.37
2018-08-06T05:38:54.890Z,2.27
2018-08-06T05:41:25.879Z,2.55
2018-08-06T05:43:56.359Z,2.20
2018-08-06T05:46:25.565Z,2.55
2018-08-06T05:48:54.688Z,2.12
2018-08-06T05:51:23.520Z,2.70
2018-08-06T05:53:52.400Z,3.27
2018-08-06T05:56:21.207Z,3.50
2018-08-06T05:58:50.222Z,4.08
2018-08-06T06:01:19.098Z,3.87
2018-08-06T06:03:47.928Z,3.98
2018-08-06T06:06:16.341Z,3.25
2018-08-06T06:08:45.195Z,3.45
2018-08-06T06:11:14.037Z,2.92
2018-08-06T06:13:42.872Z,2.62
2018-08-06T06:16:11.760Z,2.27
2018-08-06T06:18:40.604Z,2.37
2018-08-06T06:21:09.445Z,2.45
2018-08-06T06:23:38.404Z,2.22
2018-08-06T06:26:07.219Z,2.58
2018-08-06T06:28:36.112Z,2.10
2018-08-06T06:31:05.018Z,2.20
2018-08-06T06:33:33.848Z,2.00
2018-08-06T06:36:02.363Z,1.90
2018-08-06T06:38:31.227Z,1.82
2018-08-06T06:41:00.066Z,2.40
2018-08-06T06:43:28.940Z,2.25
2018-08-06T06:45:57.815Z,1.80
2018-08-06T06:48:26.816Z,2.35
2018-08-06T06:50:55.672Z,1.50
2018-08-06T06:53:24.495Z,1.82
2018-08-06T06:55:53.397Z,2.22
2018-08-06T06:58:22.232Z,1.75
2018-08-06T07:00:51.044Z,2.00
2018-08-06T07:03:19.900Z,1.67
2018-08-06T07:05:49.301Z,1.90
2018-08-06T07:08:18.265Z,1.90
2018-08-06T07:10:48.256Z,1.95
2018-08-06T07:13:17.176Z,1.92
2018-08-06T07:15:46.077Z,1.52
2018-08-06T07:18:14.891Z,1.67
2018-08-06T07:20:43.877Z,2.08
2018-08-06T07:23:12.896Z,1.98
2018-08-06T07:25:41.737Z,1.87
2018-08-06T07:28:10.670Z,1.98
2018-08-06T07:30:39.531Z,1.70
2018-08-06T07:33:09.075Z,1.75
2018-08-06T07:35:37.879Z,1.77
2018-08-06T07:38:06.848Z,1.50
2018-08-06T07:40:35.697Z,1.70
2018-08-06T07:43:04.744Z,1.50
2018-08-06T07:45:33.660Z,1.62
2018-08-06T07:48:02.532Z,1.60
2018-08-06T07:50:31.471Z,1.90
2018-08-06T07:53:00.289Z,1.52
2018-08-06T07:55:29.131Z,1.80
2018-08-06T07:57:58.117Z,1.70
2018-08-06T08:00:26.962Z,1.80
2018-08-06T08:02:55.811Z,1.52
2018-08-06T08:05:24.764Z,1.52
2018-08-06T08:07:53.679Z,1.65
2018-08-06T08:10:23.732Z,1.42
2018-08-06T08:12:53.254Z,1.67
2018-08-06T08:15:24.420Z,1.60
2018-08-06T08:17:53.591Z,1.82
2018-08-06T08:20:22.586Z,1.40
2018-08-06T08:22:51.397Z,1.47
2018-08-06T08:25:21.972Z,1.22
2018-08-06T08:27:50.535Z,1.80
2018-08-06T08:30:19.799Z,1.55
2018-08-06T08:32:48.639Z,1.35
2018-08-06T08:35:17.750Z,1.10
2018-08-06T08:37:46.660Z,1.47
2018-08-06T08:40:18.026Z,1.40
2018-08-06T08:42:46.853Z,1.60
2018-08-06T08:45:17.078Z,1.45
2018-08-06T08:47:46.533Z,1.45
2018-08-06T08:50:18.550Z,1.42
2018-08-06T08:52:47.407Z,1.47
2018-08-06T08:55:17.764Z,1.30
2018-08-06T08:57:46.965Z,1.60
2018-08-06T09:00:18.379Z,1.57
2018-08-06T09:02:48.227Z,1.50
2018-08-06T09:05:17.656Z,1.02
2018-08-06T09:07:46.975Z,1.52
2018-08-06T09:10:16.671Z,1.52
2018-08-06T09:12:46.458Z,1.42
2018-08-06T09:15:17.457Z,1.30
2018-08-06T09:17:46.377Z,1.60
2018-08-06T09:20:15.275Z,1.17
2018-08-06T09:22:44.935Z,1.50
2018-08-06T09:25:14.806Z,1.12
2018-08-06T09:27:45.391Z,1.30
2018-08-06T09:30:16.469Z,1.27
2018-08-06T09:32:46.479Z,1.30
2018-08-06T09:35:16.093Z,1.30
2018-08-06T09:37:44.667Z,1.30
2018-08-06T09:40:15.545Z,1.05
2018-08-06T09:42:45.157Z,1.50
2018-08-06T09:45:16.159Z,0.93
2018-08-06T09:47:47.046Z,1.20
2018-08-06T09:50:16.598Z,1.10
2018-08-06T09:52:46.999Z,1.30
2018-08-06T09:55:19.296Z,1.47
2018-08-06T09:57:48.872Z,1.12
2018-08-06T10:00:24.451Z,1.10
2018-08-06T10:02:54.128Z,1.30
2018-08-06T10:05:23.914Z,1.10
2018-08-06T10:07:52.789Z,1.30
2018-08-06T10:10:21.652Z,1.12
2018-08-06T10:12:50.556Z,0.90
2018-08-06T10:15:19.888Z,1.22
2018-08-06T10:17:51.393Z,1.25
2018-08-06T10:20:21.768Z,1.20
2018-08-06T10:22:50.619Z,1.35
2018-08-06T10:25:19.509Z,1.47
2018-08-06T10:27:48.611Z,1.17
2018-08-06T10:30:21.145Z,1.25
2018-08-06T10:32:49.971Z,1.07
2018-08-06T10:35:19.664Z,1.40
2018-08-06T10:37:48.644Z,1.07
2018-08-06T10:40:19.940Z,1.20
2018-08-06T10:42:48.996Z,1.10
2018-08-06T10:45:20.255Z,1.10
2018-08-06T10:47:49.815Z,1.20
2018-08-06T10:50:18.905Z,0.90
2018-08-06T10:52:47.994Z,1.47
2018-08-06T10:55:16.896Z,1.40
2018-08-06T10:57:46.360Z,1.45
2018-08-06T11:00:17.788Z,1.00
2018-08-06T11:02:46.973Z,1.15
2018-08-06T11:05:16.552Z,1.12
2018-08-06T11:07:46.131Z,1.40
2018-08-06T11:10:16.468Z,1.40
2018-08-06T11:12:45.331Z,1.10
2018-08-06T11:15:24.704Z,1.40
2018-08-06T11:17:53.633Z,1.20
2018-08-06T11:20:23.106Z,1.40
2018-08-06T11:22:51.574Z,1.52
2018-08-06T11:25:22.040Z,1.62
2018-08-06T11:27:50.927Z,1.40
2018-08-06T11:30:20.555Z,1.50
2018-08-06T11:32:49.988Z,1.47
2018-08-06T11:35:18.947Z,1.40
2018-08-06T11:37:47.914Z,1.37
2018-08-06T11:40:17.396Z,1.42
2018-08-06T11:42:47.003Z,1.42
2018-08-06T11:45:18.439Z,1.30
2018-08-06T11:47:46.976Z,1.65
2018-08-06T11:50:16.808Z,1.30
2018-08-06T11:52:45.765Z,1.60
2018-08-06T11:55:14.634Z,1.27
2018-08-06T11:57:43.524Z,1.20
2018-08-06T12:00:18.046Z,1.45
2018-08-06T12:02:47.072Z,1.65
2018-08-06T12:05:15.977Z,1.50
2018-08-06T12:07:45.080Z,1.30
2018-08-06T12:10:16.783Z,1.30
2018-08-06T12:12:46.885Z,1.40
2018-08-06T12:15:15.948Z,1.52
2018-08-06T12:17:45.439Z,1.20
2018-08-06T12:20:16.790Z,1.35
2018-08-06T12:22:47.024Z,1.50
2018-08-06T12:25:16.751Z,1.27
2018-08-06T12:27:46.369Z,1.32
2018-08-06T12:30:18.461Z,1.40
2018-08-06T12:32:47.992Z,1.20
2018-08-06T12:35:17.404Z,1.10
2018-08-06T12:37:47.257Z,1.30
2018-08-06T12:40:17.449Z,1.20
2018-08-06T12:42:46.316Z,1.22
2018-08-06T12:45:16.924Z,1.00
2018-08-06T12:47:46.288Z,1.30
2018-08-06T12:50:16.147Z,1.55
2018-08-06T12:52:45.296Z,1.20
2018-08-06T12:55:15.525Z,1.20
2018-08-06T12:57:44.976Z,1.42
2018-08-06T13:00:24.575Z,1.20
2018-08-06T13:02:54.035Z,1.20
2018-08-06T13:05:23.609Z,1.30
2018-08-06T13:07:52.804Z,0.98
2018-08-06T13:10:21.686Z,1.15
2018-08-06T13:12:50.533Z,1.30
2018-08-06T13:15:19.391Z,1.32
2018-08-06T13:17:48.760Z,1.20
2018-08-06T13:20:18.039Z,1.30
2018-08-06T13:22:46.884Z,1.45
2018-08-06T13:25:15.771Z,1.30
2018-08-06T13:27:44.836Z,1.15
2018-08-06T13:30:15.177Z,1.37
2018-08-06T13:32:44.864Z,1.22
2018-08-06T13:35:14.640Z,1.30
2018-08-06T13:37:43.512Z,1.62
2018-08-06T13:40:12.723Z,1.55
2018-08-06T13:42:41.679Z,1.70
2018-08-06T13:45:13.081Z,1.70
2018-08-06T13:47:42.476Z,1.72
2018-08-06T13:50:13.474Z,1.70
2018-08-06T13:52:42.467Z,1.50
2018-08-06T13:55:12.637Z,1.80
2018-08-06T13:57:42.817Z,1.77
2018-08-06T14:00:16.331Z,1.77
2018-08-06T14:02:45.232Z,1.87
2018-08-06T14:05:15.165Z,1.67
2018-08-06T14:07:46.959Z,1.40
2018-08-06T14:10:17.453Z,1.27
2018-08-06T14:12:46.345Z,1.60
2018-08-06T14:15:15.236Z,1.35
2018-08-06T14:17:44.404Z,1.37
2018-08-06T14:20:15.129Z,1.20
2018-08-06T14:22:43.944Z,1.12
2018-08-06T14:25:13.232Z,1.32
2018-08-06T14:27:42.077Z,1.45
2018-08-06T14:30:13.185Z,1.20
2018-08-06T14:32:42.520Z,1.10
2018-08-06T14:35:12.426Z,1.63
2018-08-06T14:37:41.359Z,1.22
2018-08-06T14:40:13.801Z,1.20
2018-08-06T14:42:42.977Z,1.17
2018-08-06T14:45:14.356Z,1.25
2018-08-06T14:47:43.208Z,1.20
2018-08-06T14:50:14.544Z,1.17
2018-08-06T14:52:44.298Z,1.25
2018-08-06T14:55:13.195Z,1.17
2018-08-06T14:57:42.557Z,1.10
2018-08-06T15:00:15.331Z,0.90
2018-08-06T15:02:44.289Z,1.25
2018-08-06T15:05:13.127Z,1.12
2018-08-06T15:07:41.977Z,1.25
2018-08-06T15:10:12.221Z,1.22
2018-08-06T15:12:41.387Z,1.00
2018-08-06T15:15:13.502Z,1.20
2018-08-06T15:17:43.889Z,1.07
2018-08-06T15:20:14.364Z,1.22
2018-08-06T15:22:43.264Z,1.15
2018-08-06T15:25:14.733Z,1.17
2018-08-06T15:27:43.778Z,1.12
2018-08-06T15:30:13.001Z,1.10
2018-08-06T15:32:41.948Z,1.30
2018-08-06T15:35:11.679Z,1.40
2018-08-06T15:37:41.718Z,1.52
2018-08-06T15:40:15.700Z,1.42
2018-08-06T15:42:44.695Z,1.65
2018-08-06T15:45:14.115Z,1.40
2018-08-06T15:47:43.730Z,1.40
2018-08-06T15:50:15.963Z,1.40
2018-08-06T15:52:44.812Z,1.30
2018-08-06T15:55:13.719Z,1.30
2018-08-06T15:57:42.648Z,1.40
2018-08-06T16:00:13.906Z,1.20
2018-08-06T16:02:43.087Z,1.37
2018-08-06T16:05:13.179Z,1.27
2018-08-06T16:07:42.059Z,1.20
2018-08-06T16:10:11.912Z,1.30
2018-08-06T16:12:40.464Z,1.90
2018-08-06T16:15:11.544Z,1.30
2018-08-06T16:17:41.127Z,1.37
2018-08-06T16:20:12.345Z,1.45
2018-08-06T16:22:41.567Z,1.22
2018-08-06T16:25:11.211Z,1.50
2018-08-06T16:27:40.096Z,1.30
2018-08-06T16:30:16.703Z,1.60
2018-08-06T16:32:46.828Z,1.50
2018-08-06T16:35:16.804Z,2.15
2018-08-06T16:37:46.000Z,2.35
2018-08-06T16:40:15.792Z,1.57
2018-08-06T16:42:45.110Z,1.47
2018-08-06T16:45:13.948Z,1.30
2018-08-06T16:47:42.822Z,1.22
2018-08-06T16:50:14.173Z,1.50
2018-08-06T16:52:43.165Z,1.02
2018-08-06T16:55:12.169Z,1.20
2018-08-06T16:57:41.373Z,1.32
2018-08-06T17:00:12.700Z,1.45
2018-08-06T17:02:41.606Z,1.30
2018-08-06T17:05:12.158Z,1.27
2018-08-06T17:07:40.843Z,1.40
2018-08-06T17:10:12.440Z,1.42
2018-08-06T17:12:42.268Z,1.47
2018-08-06T17:15:12.685Z,1.42
2018-08-06T17:17:41.785Z,1.50
2018-08-06T17:20:13.912Z,1.50
2018-08-06T17:22:43.636Z,1.60
2018-08-06T17:25:13.042Z,1.60
2018-08-06T17:27:42.344Z,1.75
2018-08-06T17:30:12.148Z,1.98
2018-08-06T17:32:41.032Z,1.30
2018-08-06T17:35:11.597Z,1.75
2018-08-06T17:37:40.483Z,1.72
2018-08-06T17:40:12.645Z,1.98
2018-08-06T17:42:41.663Z,1.60
2018-08-06T17:45:25.196Z,1.50
2018-08-06T17:47:53.619Z,1.82
2018-08-06T17:50:23.377Z,1.65
2018-08-06T17:52:53.241Z,1.90
2018-08-06T17:55:23.007Z,1.50
2018-08-06T17:57:51.860Z,1.70
2018-08-06T18:00:21.144Z,1.90
2018-08-06T18:02:50.123Z,1.77
2018-08-06T18:05:19.412Z,1.40
2018-08-06T18:07:48.239Z,1.75
2018-08-06T18:10:18.075Z,1.80
2018-08-06T18:12:47.656Z,1.87
2018-08-06T18:15:16.632Z,1.95
2018-08-06T18:17:45.477Z,1.72
2018-08-06T18:20:16.088Z,1.80
2018-08-06T18:22:44.606Z,1.77
2018-08-06T18:25:16.005Z,1.65
2018-08-06T18:27:47.015Z,1.60
2018-08-06T18:30:18.819Z,2.20
2018-08-06T18:32:47.701Z,2.02
2018-08-06T18:35:17.625Z,2.10
2018-08-06T18:37:46.616Z,2.30
2018-08-06T18:40:16.548Z,2.00
2018-08-06T18:42:45.408Z,2.17
2018-08-06T18:45:16.485Z,2.20
2018-08-06T18:47:46.371Z,2.10
2018-08-06T18:50:16.177Z,2.60
2018-08-06T18:52:46.041Z,2.58
2018-08-06T18:55:15.591Z,2.30
2018-08-06T18:57:45.208Z,2.02
2018-08-06T19:00:17.783Z,2.25
2018-08-06T19:02:46.768Z,2.35
2018-08-06T19:05:15.730Z,2.85
2018-08-06T19:07:44.666Z,3.40
2018-08-06T19:10:13.699Z,2.55
2018-08-06T19:12:47.843Z,2.98
2018-08-06T19:15:16.754Z,3.35
2018-08-06T19:17:50.945Z,3.02
2018-08-06T19:20:19.818Z,3.20
2018-08-06T19:22:48.668Z,2.80
2018-08-06T19:25:22.363Z,3.37
2018-08-06T19:27:51.287Z,2.80
2018-08-06T19:30:20.144Z,3.27
2018-08-06T19:32:48.994Z,3.47
2018-08-06T19:35:17.856Z,3.40
2018-08-06T19:37:48.177Z,3.50
2018-08-06T19:40:16.592Z,3.65
2018-08-06T19:42:57.101Z,3.22
2018-08-06T19:45:25.960Z,2.83
2018-08-06T19:47:54.817Z,3.25
2018-08-06T19:50:28.612Z,3.70
2018-08-06T19:52:57.444Z,3.05
2018-08-06T19:55:31.557Z,3.22
2018-08-06T19:58:00.401Z,3.55
2018-08-06T20:00:29.241Z,3.92
2018-08-06T20:02:58.172Z,3.40
2018-08-06T20:05:26.996Z,3.80
2018-08-06T20:07:55.820Z,3.87
2018-08-06T20:10:24.752Z,4.22
2018-08-06T20:12:53.597Z,4.08
2018-08-06T20:15:22.429Z,3.70
2018-08-06T20:17:51.363Z,4.37
2018-08-06T20:20:20.233Z,4.33
2018-08-06T20:22:49.059Z,4.42
2018-08-06T20:25:21.060Z,4.60
2018-08-06T20:27:50.642Z,4.10
2018-08-06T20:30:21.517Z,4.22
2018-08-06T20:32:50.424Z,4.78
2018-08-06T20:35:19.914Z,4.62
2018-08-06T20:37:48.789Z,4.20
2018-08-06T20:40:17.612Z,4.40
2018-08-06T20:42:46.887Z,4.30
2018-08-06T20:45:17.976Z,4.62
2018-08-06T20:47:46.863Z,4.70
2018-08-06T20:50:17.709Z,4.22
2018-08-06T20:52:47.575Z,4.75
2018-08-06T20:55:16.404Z,5.45
2018-08-06T20:57:45.623Z,6.42
2018-08-06T21:00:17.112Z,5.40
2018-08-06T21:02:46.792Z,5.67
2018-08-06T21:05:15.674Z,5.67
2018-08-06T21:07:44.542Z,6.70
2018-08-06T21:10:14.995Z,5.05
2018-08-06T21:12:43.889Z,5.62
2018-08-06T21:15:13.887Z,5.83
2018-08-06T21:17:42.960Z,5.83
2018-08-06T21:20:15.334Z,5.87
2018-08-06T21:22:45.423Z,4.92
2018-08-06T21:25:14.581Z,5.92
2018-08-06T21:27:44.600Z,5.13
2018-08-06T21:30:15.493Z,5.25
2018-08-06T21:32:49.761Z,5.53
2018-08-06T21:35:19.628Z,5.40
2018-08-06T21:37:49.804Z,4.93
2018-08-06T21:40:19.521Z,5.73
2018-08-06T21:42:49.027Z,4.83
2018-08-06T21:45:17.988Z,4.73
2018-08-06T21:47:46.927Z,5.80
2018-08-06T21:50:16.016Z,5.10
2018-08-06T21:52:45.221Z,5.20
2018-08-06T21:55:14.123Z,4.70
2018-08-06T21:57:43.024Z,4.80
2018-08-06T22:00:42.764Z,5.20
2018-08-06T22:03:15.913Z,4.77
2018-08-06T22:05:45.364Z,4.57
2018-08-06T22:08:14.212Z,4.83
2018-08-06T22:10:43.098Z,5.20
2018-08-06T22:13:12.248Z,4.97
2018-08-06T22:15:41.224Z,4.80
2018-08-06T22:18:11.845Z,5.43
2018-08-06T22:20:41.080Z,5.40
2018-08-06T22:23:09.530Z,4.83
2018-08-06T22:25:38.367Z,5.00
2018-08-06T22:28:10.273Z,5.33
2018-08-06T22:30:39.093Z,5.37
2018-08-06T22:33:07.944Z,5.40
2018-08-06T22:35:36.828Z,4.97
2018-08-06T22:38:05.652Z,5.33
2018-08-06T22:40:34.480Z,5.33
2018-08-06T22:43:03.352Z,4.77
2018-08-06T22:45:32.182Z,5.50
2018-08-06T22:48:01.002Z,5.13
2018-08-06T22:50:29.888Z,4.93
2018-08-06T22:52:58.709Z,5.07
2018-08-06T22:55:27.542Z,5.10
2018-08-06T22:57:56.401Z,5.00
2018-08-06T23:00:25.266Z,5.60
2018-08-06T23:02:54.091Z,5.17
2018-08-06T23:05:22.964Z,5.37
2018-08-06T23:07:51.795Z,5.60
2018-08-06T23:10:20.631Z,4.80
2018-08-06T23:12:49.534Z,4.60
2018-08-06T23:15:18.384Z,4.57
2018-08-06T23:17:47.232Z,4.73
2018-08-06T23:20:16.175Z,4.97
2018-08-06T23:22:45.013Z,4.53
2018-08-06T23:25:13.861Z,5.13
2018-08-06T23:27:42.739Z,5.00
2018-08-06T23:30:15.643Z,4.70
2018-08-06T23:32:44.516Z,4.90
2018-08-06T23:35:14.254Z,4.90
2018-08-06T23:37:44.329Z,5.10
2018-08-06T23:40:13.982Z,4.77
2018-08-06T23:42:43.111Z,4.43
2018-08-06T23:45:13.481Z,4.33
2018-08-06T23:47:42.329Z,4.80
2018-08-06T23:50:13.204Z,4.87
2018-08-06T23:52:44.664Z,4.87
2018-08-06T23:55:15.216Z,4.97
2018-08-06T23:57:44.035Z,4.83
